createdAt,value
2018-04-18T00:03:00.447Z,8.77
2018-04-18T00:06:01.924Z,14.37
2018-04-18T00:09:03.257Z,7.53
2018-04-18T00:12:05.287Z,8.97
2018-04-18T00:15:06.620Z,14.00
2018-04-18T00:18:07.932Z,8.70
2018-04-18T00:21:09.272Z,9.00
2018-04-18T00:24:10.618Z,14.80
2018-04-18T00:27:11.978Z,9.67
2018-04-18T00:30:13.245Z,13.83
2018-04-18T00:33:14.533Z,8.10
2018-04-18T00:36:15.835Z,11.23
2018-04-18T00:39:17.106Z,18.33
2018-04-18T00:42:19.131Z,10.90
2018-04-18T00:45:20.414Z,14.40
2018-04-18T00:48:21.875Z,14.33
2018-04-18T00:51:23.156Z,14.57
2018-04-18T00:54:31.623Z,17.70
2018-04-18T00:57:34.042Z,11.17
2018-04-18T01:00:35.505Z,9.97
2018-04-18T01:03:36.821Z,15.13
2018-04-18T01:06:38.165Z,11.93
2018-04-18T01:09:40.237Z,15.73
2018-04-18T01:12:41.837Z,17.80
2018-04-18T01:15:43.149Z,8.80
2018-04-18T01:18:44.469Z,13.70
2018-04-18T01:21:45.758Z,12.37
2018-04-18T01:24:47.791Z,12.43
2018-04-18T01:27:49.077Z,16.43
2018-04-18T01:30:50.365Z,12.47
2018-04-18T01:33:52.378Z,14.67
2018-04-18T01:36:53.666Z,14.00
2018-04-18T01:39:54.925Z,11.57
2018-04-18T01:42:56.218Z,12.73
2018-04-18T01:45:57.482Z,12.17
2018-04-18T01:49:17.194Z,12.00
2018-04-18T01:52:19.224Z,16.30
2018-04-18T01:55:20.490Z,16.43
2018-04-18T01:58:21.769Z,13.73
2018-04-18T02:04:31.988Z,10.43
2018-04-18T02:07:33.477Z,7.13
2018-04-18T02:10:35.585Z,7.07
2018-04-18T02:13:36.858Z,12.17
2018-04-18T02:16:38.142Z,9.67
2018-04-18T02:19:39.429Z,16.03
2018-04-18T02:22:40.707Z,13.80
2018-04-18T02:25:41.978Z,11.37
2018-04-18T02:28:43.282Z,8.23
2018-04-18T02:31:44.632Z,9.63
2018-04-18T02:34:45.878Z,10.30
2018-04-18T02:37:47.873Z,7.37
2018-04-18T02:40:49.130Z,19.00
2018-04-18T02:43:51.154Z,15.70
2018-04-18T02:46:52.427Z,13.73
2018-04-18T02:49:53.688Z,25.23
2018-04-18T02:52:55.050Z,8.17
2018-04-18T02:55:56.357Z,21.50
2018-04-18T02:58:58.384Z,14.90
2018-04-18T03:01:59.731Z,12.93
2018-04-18T03:05:01.085Z,11.33
2018-04-18T03:08:02.406Z,11.37
2018-04-18T03:11:03.733Z,17.00
2018-04-18T03:14:05.037Z,9.43
2018-04-18T03:17:06.324Z,13.43
2018-04-18T03:20:08.365Z,14.87
2018-04-18T03:23:10.376Z,20.53
2018-04-18T03:26:11.654Z,12.50
2018-04-18T03:29:13.654Z,11.37
2018-04-18T03:32:14.939Z,14.37
2018-04-18T03:35:16.179Z,16.20
2018-04-18T03:38:17.454Z,10.27
2018-04-18T03:41:18.726Z,12.40
2018-04-18T03:44:19.994Z,12.50
2018-04-18T03:47:21.246Z,19.17
2018-04-18T03:50:22.498Z,17.67
2018-04-18T03:53:23.720Z,12.77
2018-04-18T03:56:24.999Z,13.43
2018-04-18T03:59:26.976Z,16.13
2018-04-18T04:02:28.274Z,15.60
2018-04-18T04:05:29.518Z,11.77
2018-04-18T04:08:31.629Z,19.70
2018-04-18T04:11:32.978Z,19.57
2018-04-18T04:14:34.414Z,26.47
2018-04-18T04:17:55.182Z,26.23
2018-04-18T04:21:14.997Z,21.40
2018-04-18T04:24:44.628Z,27.20
2018-04-18T04:27:45.904Z,15.30
2018-04-18T04:30:47.175Z,16.40
2018-04-18T04:33:48.652Z,17.03
2018-04-18T04:36:50.299Z,17.73
2018-04-18T04:39:52.335Z,22.13
2018-04-18T04:42:54.551Z,30.47
2018-04-18T04:45:55.836Z,26.50
2018-04-18T04:48:57.132Z,28.53
2018-04-18T04:52:00.338Z,32.93
2018-04-18T04:55:03.467Z,36.43
2018-04-18T04:58:04.832Z,36.53
2018-04-18T05:01:07.043Z,25.13
2018-04-18T05:04:09.196Z,35.90
2018-04-18T05:07:13.126Z,32.47
2018-04-18T05:10:15.257Z,43.13
2018-04-18T05:13:17.871Z,28.63
2018-04-18T05:16:19.539Z,35.03
2018-04-18T05:19:21.988Z,25.70
2018-04-18T05:22:24.094Z,42.47
2018-04-18T05:25:26.149Z,24.03
2018-04-18T05:28:27.419Z,25.93
2018-04-18T05:31:28.680Z,31.87
2018-04-18T05:34:30.004Z,34.43
2018-04-18T05:37:31.359Z,35.20
2018-04-18T05:40:32.797Z,28.93
2018-04-18T05:43:34.179Z,35.70
2018-04-18T05:46:35.557Z,31.00
2018-04-18T05:49:36.907Z,34.13
2018-04-18T05:52:38.154Z,28.60
2018-04-18T05:55:39.417Z,35.17
2018-04-18T05:58:40.712Z,31.03
2018-04-18T06:01:42.135Z,32.33
2018-04-18T06:04:43.436Z,24.17
2018-04-18T06:07:44.661Z,24.13
2018-04-18T06:10:45.914Z,23.33
2018-04-18T06:13:47.220Z,21.73
2018-04-18T06:16:48.527Z,28.70
2018-04-18T06:19:50.561Z,20.40
2018-04-18T06:22:51.846Z,26.83
2018-04-18T06:25:53.105Z,22.87
2018-04-18T06:28:54.361Z,30.67
2018-04-18T06:31:55.651Z,23.97
2018-04-18T06:34:56.889Z,26.17
2018-04-18T06:37:58.143Z,25.90
2018-04-18T06:40:59.482Z,24.13
2018-04-18T06:44:00.823Z,27.60
2018-04-18T06:47:02.846Z,20.03
2018-04-18T06:50:04.267Z,27.80
2018-04-18T06:53:06.279Z,20.03
2018-04-18T06:56:08.180Z,27.20
2018-04-18T06:59:09.618Z,22.73
2018-04-18T07:02:10.943Z,24.83
2018-04-18T07:05:12.387Z,26.23
2018-04-18T07:08:13.693Z,46.63
2018-04-18T07:11:15.699Z,21.57
2018-04-18T07:14:17.035Z,31.80
2018-04-18T07:17:19.013Z,32.00
2018-04-18T07:20:21.029Z,18.87
2018-04-18T07:23:22.328Z,30.57
2018-04-18T07:26:23.701Z,238.30
2018-04-18T07:29:24.985Z,163.17
2018-04-18T07:32:26.994Z,115.33
2018-04-18T07:35:28.272Z,48.97
2018-04-18T07:38:29.654Z,39.43
2018-04-18T07:41:30.950Z,39.67
2018-04-18T07:44:32.454Z,49.23
2018-04-18T07:47:33.760Z,39.57
2018-04-18T07:50:35.187Z,40.80
2018-04-18T07:53:36.530Z,35.70
2018-04-18T07:56:38.531Z,39.43
2018-04-18T07:59:39.814Z,34.07
2018-04-18T08:02:41.186Z,30.87
2018-04-18T08:05:42.535Z,33.97
2018-04-18T08:08:43.855Z,37.07
2018-04-18T08:11:45.154Z,32.53
2018-04-18T08:14:46.497Z,35.70
2018-04-18T08:17:48.559Z,30.63
2018-04-18T08:20:49.855Z,33.20
2018-04-18T08:23:51.896Z,32.93
2018-04-18T08:26:53.758Z,36.50
2018-04-18T08:29:55.092Z,32.60
2018-04-18T08:32:56.448Z,31.40
2018-04-18T08:35:57.793Z,34.40
2018-04-18T08:38:59.898Z,33.03
2018-04-18T08:42:01.231Z,28.17
2018-04-18T08:45:02.536Z,33.67
2018-04-18T08:48:21.241Z,27.80
2018-04-18T08:51:22.718Z,33.97
2018-04-18T08:54:24.543Z,42.60
2018-04-18T08:57:26.000Z,30.07
2018-04-18T09:00:27.394Z,24.73
2018-04-18T09:03:28.741Z,29.87
2018-04-18T09:06:30.120Z,40.80
2018-04-18T09:09:32.106Z,25.83
2018-04-18T09:12:33.463Z,44.13
2018-04-18T09:15:34.838Z,31.80
2018-04-18T09:22:08.804Z,42.73
2018-04-18T09:25:10.179Z,52.53
2018-04-18T09:28:11.560Z,59.23
2018-04-18T09:31:12.961Z,78.50
2018-04-18T09:34:15.064Z,60.57
2018-04-18T09:37:16.461Z,59.37
2018-04-18T09:40:17.904Z,63.90
2018-04-18T09:43:19.575Z,64.43
2018-04-18T09:46:21.144Z,54.40
2018-04-18T09:49:22.700Z,57.43
2018-04-18T09:52:24.907Z,46.43
2018-04-18T09:55:27.115Z,57.80
2018-04-18T09:58:28.653Z,61.83
2018-04-18T10:01:36.057Z,50.27
2018-04-18T10:04:44.146Z,53.37
2018-04-18T10:07:45.543Z,51.47
2018-04-18T10:10:47.854Z,64.37
2018-04-18T10:13:49.416Z,43.67
2018-04-18T10:16:50.901Z,43.73
2018-04-18T10:19:52.321Z,53.83
2018-04-18T10:22:53.790Z,44.67
2018-04-18T10:25:55.302Z,41.20
2018-04-18T10:28:56.745Z,55.10
2018-04-18T10:31:58.222Z,51.40
2018-04-18T10:34:59.651Z,49.67
2018-04-18T10:38:01.090Z,46.67
2018-04-18T10:41:02.511Z,36.43
2018-04-18T10:44:04.725Z,41.47
2018-04-18T10:47:06.133Z,42.60
2018-04-18T10:50:07.578Z,35.80
2018-04-18T10:53:09.009Z,35.10
2018-04-18T10:56:10.451Z,39.63
2018-04-18T10:59:11.845Z,38.40
2018-04-18T11:02:13.314Z,44.60
2018-04-18T11:05:14.734Z,35.27
2018-04-18T11:08:16.191Z,48.43
2018-04-18T11:14:26.538Z,52.23
2018-04-18T11:17:28.718Z,35.03
2018-04-18T11:20:30.891Z,28.20
2018-04-18T11:23:32.308Z,33.23
2018-04-18T11:26:33.778Z,30.57
2018-04-18T11:29:35.277Z,29.53
2018-04-18T11:32:36.715Z,43.90
2018-04-18T11:35:38.131Z,30.13
2018-04-18T11:38:39.550Z,36.70
2018-04-18T11:41:40.939Z,30.83
2018-04-18T11:44:42.399Z,36.90
2018-04-18T11:47:43.822Z,29.87
2018-04-18T11:50:45.238Z,45.13
2018-04-18T11:53:46.665Z,38.97
2018-04-18T11:56:48.071Z,31.47
2018-04-18T11:59:49.487Z,40.53
2018-04-18T12:02:51.718Z,40.83
2018-04-18T12:05:53.156Z,38.53
2018-04-18T12:08:54.620Z,27.20
2018-04-18T12:11:56.043Z,32.03
2018-04-18T12:14:57.474Z,40.83
2018-04-18T12:17:58.962Z,35.93
2018-04-18T12:21:01.145Z,45.63
2018-04-18T12:24:02.569Z,32.03
2018-04-18T12:27:04.723Z,29.27
2018-04-18T12:30:06.157Z,33.10
2018-04-18T12:33:07.579Z,42.47
2018-04-18T12:36:09.856Z,43.10
2018-04-18T12:39:11.371Z,48.60
2018-04-18T12:42:12.797Z,42.53
2018-04-18T12:45:15.007Z,31.57
2018-04-18T12:48:16.484Z,33.83
2018-04-18T12:51:17.916Z,44.83
2018-04-18T12:54:20.016Z,44.80
2018-04-18T12:57:21.457Z,42.60
2018-04-18T13:00:22.856Z,39.63
2018-04-18T13:03:24.275Z,34.80
2018-04-18T13:06:25.858Z,39.83
2018-04-18T13:09:27.280Z,42.43
2018-04-18T13:12:28.716Z,37.00
2018-04-18T13:15:30.192Z,65.87
2018-04-18T13:18:31.664Z,47.63
2018-04-18T13:21:33.090Z,44.80
2018-04-18T13:24:34.598Z,32.43
2018-04-18T13:27:36.026Z,55.40
2018-04-18T13:30:37.404Z,48.83
2018-04-18T13:33:39.545Z,36.93
2018-04-18T13:36:40.976Z,47.77
2018-04-18T13:39:42.419Z,43.70
2018-04-18T13:42:44.586Z,30.33
2018-04-18T13:45:46.053Z,35.93
2018-04-18T13:48:48.023Z,49.70
2018-04-18T13:51:49.806Z,39.27
2018-04-18T13:54:52.477Z,40.07
2018-04-18T13:57:53.884Z,31.70
2018-04-18T14:00:55.294Z,46.77
2018-04-18T14:03:56.697Z,26.50
2018-04-18T14:06:58.058Z,34.33
2018-04-18T14:09:59.486Z,37.63
2018-04-18T14:13:00.922Z,53.10
2018-04-18T14:16:02.327Z,34.37
2018-04-18T14:19:03.765Z,44.73
2018-04-18T14:22:05.907Z,45.47
2018-04-18T14:25:07.439Z,27.83
2018-04-18T14:28:08.897Z,33.37
2018-04-18T14:31:11.147Z,40.47
2018-04-18T14:34:12.547Z,33.80
2018-04-18T14:37:14.706Z,30.30
2018-04-18T14:40:16.173Z,34.97
2018-04-18T14:43:17.587Z,32.73
2018-04-18T14:46:18.999Z,35.87
2018-04-18T14:49:21.107Z,20.27
2018-04-18T14:52:23.343Z,30.33
2018-04-18T14:55:24.819Z,36.57
2018-04-18T14:58:26.293Z,30.40
2018-04-18T15:01:27.711Z,26.77
2018-04-18T15:04:29.900Z,35.53
2018-04-18T15:07:31.379Z,30.30
2018-04-18T15:10:32.793Z,30.33
2018-04-18T15:13:34.284Z,35.37
2018-04-18T15:16:37.524Z,29.90
2018-04-18T15:19:39.401Z,30.77
2018-04-18T15:25:49.001Z,25.80
2018-04-18T15:28:50.535Z,37.33
2018-04-18T15:31:51.988Z,34.97
2018-04-18T15:34:53.428Z,49.13
2018-04-18T15:37:54.920Z,56.93
2018-04-18T15:40:56.398Z,50.20
2018-04-18T15:43:57.821Z,35.67
2018-04-18T15:46:59.311Z,45.60
2018-04-18T15:50:00.781Z,54.83
2018-04-18T15:53:02.324Z,33.93
2018-04-18T15:56:03.835Z,30.03
2018-04-18T15:59:05.317Z,47.80
2018-04-18T16:02:06.892Z,43.33
2018-04-18T16:05:09.114Z,41.70
2018-04-18T16:08:10.568Z,33.13
2018-04-18T16:11:12.111Z,42.43
2018-04-18T16:14:13.551Z,32.80
2018-04-18T16:17:15.078Z,35.73
2018-04-18T16:20:16.522Z,38.27
2018-04-18T16:23:18.774Z,35.37
2018-04-18T16:26:20.323Z,39.30
2018-04-18T16:29:40.215Z,39.90
2018-04-18T16:32:41.754Z,35.47
2018-04-18T16:35:44.022Z,48.73
2018-04-18T16:38:45.531Z,31.93
2018-04-18T16:41:47.109Z,30.93
2018-04-18T16:44:48.670Z,34.00
2018-04-18T16:47:50.166Z,47.30
2018-04-18T16:50:51.674Z,42.20
2018-04-18T16:53:53.898Z,53.10
2018-04-18T16:56:55.373Z,49.53
2018-04-18T16:59:56.845Z,39.50
2018-04-18T17:02:58.331Z,37.97
2018-04-18T17:06:00.172Z,67.00
2018-04-18T17:09:01.695Z,39.73
2018-04-18T17:12:03.149Z,36.97
2018-04-18T17:15:04.664Z,23.90
2018-04-18T17:18:06.884Z,31.17
2018-04-18T17:21:08.349Z,33.93
2018-04-18T17:24:10.525Z,31.07
2018-04-18T17:27:12.064Z,33.97
2018-04-18T17:30:14.295Z,28.87
2018-04-18T17:33:15.858Z,23.47
2018-04-18T17:36:17.406Z,26.23
2018-04-18T17:39:18.901Z,23.40
2018-04-18T17:42:34.237Z,16.10
2018-04-18T17:49:09.203Z,25.60
2018-04-18T17:52:19.758Z,25.60
2018-04-18T17:59:16.314Z,29.07
2018-04-18T20:14:51.851Z,16.40
2018-04-18T20:18:02.121Z,36.73
2018-04-18T20:21:03.674Z,18.33
2018-04-18T20:24:06.424Z,33.83
2018-04-18T20:27:08.885Z,15.93
2018-04-18T20:30:11.725Z,17.53
2018-04-18T20:33:14.132Z,23.33
2018-04-18T20:36:15.778Z,36.03
2018-04-18T20:46:55.032Z,19.17
2018-04-18T20:49:56.741Z,15.37
2018-04-18T20:53:01.660Z,26.83
2018-04-18T20:56:03.394Z,17.87
2018-04-18T20:59:05.783Z,26.73
2018-04-18T21:02:08.156Z,22.83
2018-04-18T21:05:38.446Z,25.30
2018-04-18T21:08:49.227Z,16.10
2018-04-18T21:12:11.329Z,18.43
2018-04-18T21:15:13.727Z,17.90
2018-04-18T21:18:27.513Z,20.80
2018-04-18T21:21:31.076Z,23.63
2018-04-18T21:24:32.658Z,20.50
2018-04-18T21:27:35.876Z,20.67
2018-04-18T21:30:38.191Z,33.63
2018-04-18T21:33:41.546Z,16.97
2018-04-18T21:36:43.206Z,13.33
2018-04-18T21:42:53.565Z,15.37
2018-04-18T21:45:55.070Z,18.70
2018-04-18T21:48:58.413Z,18.57
2018-04-18T21:52:02.694Z,20.23
2018-04-18T21:58:13.287Z,12.83
2018-04-18T22:08:43.409Z,23.63
2018-04-18T22:12:09.707Z,15.90
2018-04-18T22:15:17.323Z,16.93
2018-04-18T22:18:18.919Z,24.87
2018-04-18T22:21:20.501Z,21.60
2018-04-18T22:24:22.077Z,12.80
2018-04-18T22:27:24.550Z,17.40
2018-04-18T22:30:38.908Z,16.97
2018-04-18T22:33:40.490Z,15.00
2018-04-18T22:36:41.973Z,17.20
2018-04-18T22:39:43.573Z,17.73
2018-04-18T22:42:45.109Z,37.77
2018-04-18T22:45:46.640Z,15.73
2018-04-18T22:48:48.885Z,15.77
2018-04-18T22:51:50.377Z,22.67
2018-04-18T22:54:52.744Z,10.17
2018-04-18T22:57:54.334Z,7.97
2018-04-18T23:00:55.888Z,8.53
2018-04-18T23:04:00.320Z,6.90
2018-04-18T23:07:01.910Z,12.57
2018-04-18T23:10:03.518Z,14.27
2018-04-18T23:16:13.596Z,9.23
2018-04-18T23:19:15.127Z,14.90
2018-04-18T23:22:32.982Z,12.13
2018-04-18T23:25:34.557Z,11.00
2018-04-18T23:28:36.073Z,13.23
2018-04-18T23:31:38.393Z,19.83
2018-04-18T23:34:39.907Z,10.07
2018-04-18T23:37:41.989Z,12.47
2018-04-18T23:40:43.476Z,18.60
2018-04-18T23:43:48.729Z,14.37
2018-04-18T23:46:50.270Z,10.50
2018-04-18T23:49:51.860Z,10.63
2018-04-18T23:52:53.381Z,7.80
2018-04-18T23:55:55.675Z,9.43
2018-04-18T23:58:57.124Z,9.00
